createdAt,value
2019-03-17T00:00:55.351Z,3.53
2019-03-17T00:03:24.258Z,3.70
2019-03-17T00:05:53.651Z,3.57
2019-03-17T00:08:22.556Z,3.63
2019-03-17T00:10:52.807Z,2.67
2019-03-17T00:13:21.895Z,2.60
2019-03-17T00:15:50.817Z,2.83
2019-03-17T00:18:19.868Z,3.00
2019-03-17T00:20:49.088Z,2.40
2019-03-17T00:23:18.007Z,2.40
2019-03-17T00:25:47.121Z,2.70
2019-03-17T00:28:20.929Z,3.20
2019-03-17T00:30:49.872Z,3.10
2019-03-17T00:33:21.906Z,2.90
2019-03-17T00:35:50.812Z,3.30
2019-03-17T00:38:19.709Z,3.97
2019-03-17T00:40:48.623Z,3.90
2019-03-17T00:43:17.715Z,3.10
2019-03-17T00:45:48.573Z,3.90
2019-03-17T00:48:17.220Z,4.60
2019-03-17T00:50:48.774Z,4.23
2019-03-17T00:53:16.785Z,4.30
2019-03-17T00:55:45.727Z,3.70
2019-03-17T00:58:14.581Z,3.93
2019-03-17T01:00:43.546Z,3.17
2019-03-17T01:03:12.437Z,2.37
2019-03-17T01:05:41.487Z,2.77
2019-03-17T01:08:10.876Z,2.10
2019-03-17T01:10:39.995Z,2.30
2019-03-17T01:13:08.938Z,2.33
2019-03-17T01:15:37.840Z,3.40
2019-03-17T01:18:06.821Z,3.30
2019-03-17T01:20:35.904Z,3.00
2019-03-17T01:23:04.849Z,2.93
2019-03-17T01:25:34.314Z,2.70
2019-03-17T01:28:03.286Z,2.90
2019-03-17T01:30:32.192Z,2.70
2019-03-17T01:33:01.070Z,2.83
2019-03-17T01:35:32.572Z,2.60
2019-03-17T01:38:00.712Z,2.70
2019-03-17T01:40:29.571Z,2.20
2019-03-17T01:42:58.458Z,2.73
2019-03-17T01:45:27.481Z,2.57
2019-03-17T01:47:56.304Z,2.73
2019-03-17T01:50:25.169Z,3.07
2019-03-17T01:52:54.184Z,3.07
2019-03-17T01:55:23.084Z,2.80
2019-03-17T01:57:51.961Z,3.30
2019-03-17T02:00:20.866Z,4.00
2019-03-17T02:02:49.714Z,3.27
2019-03-17T02:05:22.306Z,3.70
2019-03-17T02:07:49.448Z,3.30
2019-03-17T02:10:18.354Z,2.57
2019-03-17T02:12:47.210Z,2.30
2019-03-17T02:15:16.117Z,2.40
2019-03-17T02:17:45.055Z,2.27
2019-03-17T02:20:14.007Z,2.63
2019-03-17T02:22:42.895Z,2.00
2019-03-17T02:25:11.741Z,2.87
2019-03-17T02:27:40.818Z,2.50
2019-03-17T02:30:10.491Z,2.53
2019-03-17T02:32:39.341Z,1.83
2019-03-17T02:35:08.286Z,2.00
2019-03-17T02:37:37.204Z,2.80
2019-03-17T02:40:06.250Z,2.17
2019-03-17T02:42:35.156Z,1.53
2019-03-17T02:45:04.232Z,2.10
2019-03-17T02:47:33.067Z,2.50
2019-03-17T02:50:01.976Z,2.87
2019-03-17T02:52:30.854Z,2.60
2019-03-17T02:54:59.690Z,3.30
2019-03-17T02:57:28.541Z,2.63
2019-03-17T02:59:57.444Z,2.20
2019-03-17T03:02:26.343Z,2.23
2019-03-17T03:04:55.303Z,1.97
2019-03-17T03:07:24.194Z,1.83
2019-03-17T03:09:56.160Z,1.50
2019-03-17T03:12:25.182Z,1.90
2019-03-17T03:14:56.610Z,2.17
2019-03-17T03:17:25.531Z,1.70
2019-03-17T03:19:54.451Z,2.13
2019-03-17T03:22:23.370Z,2.00
2019-03-17T03:24:52.331Z,1.60
2019-03-17T03:27:21.217Z,2.00
2019-03-17T03:29:50.300Z,1.40
2019-03-17T03:32:19.155Z,1.67
2019-03-17T03:34:48.154Z,1.77
2019-03-17T03:37:19.424Z,1.70
2019-03-17T03:39:48.256Z,2.07
2019-03-17T03:42:17.175Z,1.30
2019-03-17T03:44:46.143Z,1.30
2019-03-17T03:47:15.181Z,1.60
2019-03-17T03:49:44.098Z,1.90
2019-03-17T03:52:12.943Z,1.60
2019-03-17T03:54:41.893Z,1.80
2019-03-17T03:57:11.042Z,1.70
2019-03-17T03:59:39.913Z,1.57
2019-03-17T04:02:08.836Z,2.20
2019-03-17T04:04:37.758Z,2.30
2019-03-17T04:07:06.584Z,2.00
2019-03-17T04:09:35.434Z,2.63
2019-03-17T04:12:04.709Z,1.87
2019-03-17T04:14:33.566Z,1.80
2019-03-17T04:17:02.573Z,1.90
2019-03-17T04:19:31.756Z,1.93
2019-03-17T04:22:00.675Z,1.97
2019-03-17T04:24:29.796Z,2.27
2019-03-17T04:26:58.779Z,1.83
2019-03-17T04:29:27.753Z,2.33
2019-03-17T04:31:56.652Z,2.43
2019-03-17T04:34:25.507Z,1.90
2019-03-17T04:36:54.380Z,1.80
2019-03-17T04:39:23.205Z,2.50
2019-03-17T04:41:52.100Z,1.80
2019-03-17T04:44:21.340Z,2.10
2019-03-17T04:46:50.251Z,2.23
2019-03-17T04:49:19.065Z,2.30
2019-03-17T04:51:47.918Z,1.97
2019-03-17T04:54:16.759Z,2.20
2019-03-17T04:56:45.630Z,1.90
2019-03-17T04:59:14.494Z,2.10
2019-03-17T05:01:43.395Z,2.07
2019-03-17T05:04:12.326Z,2.17
2019-03-17T05:06:52.654Z,1.60
2019-03-17T05:09:14.601Z,1.83
2019-03-17T05:11:43.400Z,1.97
2019-03-17T05:14:12.233Z,2.00
2019-03-17T05:16:41.182Z,1.97
2019-03-17T05:19:10.186Z,2.00
2019-03-17T05:21:39.034Z,2.40
2019-03-17T05:24:07.896Z,1.57
2019-03-17T05:26:36.898Z,1.60
2019-03-17T05:29:05.904Z,1.70
2019-03-17T05:31:34.720Z,1.73
2019-03-17T05:34:03.566Z,1.87
2019-03-17T05:36:32.413Z,1.70
2019-03-17T05:39:01.534Z,2.13
2019-03-17T05:41:30.361Z,1.60
2019-03-17T05:43:59.223Z,1.93
2019-03-17T05:46:28.121Z,1.73
2019-03-17T05:48:57.034Z,1.50
2019-03-17T05:51:25.926Z,1.80
2019-03-17T05:53:56.136Z,1.70
2019-03-17T05:56:24.958Z,1.50
2019-03-17T05:58:53.794Z,1.57
2019-03-17T06:01:22.740Z,1.70
2019-03-17T06:03:51.632Z,1.60
2019-03-17T06:06:23.016Z,1.60
2019-03-17T06:08:51.994Z,1.60
2019-03-17T06:11:20.964Z,1.47
2019-03-17T06:13:51.316Z,1.70
2019-03-17T06:16:20.347Z,1.50
2019-03-17T06:18:52.334Z,1.53
2019-03-17T06:21:21.299Z,1.30
2019-03-17T06:23:50.338Z,1.47
2019-03-17T06:26:19.471Z,1.40
2019-03-17T06:28:48.326Z,1.80
2019-03-17T06:31:17.267Z,1.60
2019-03-17T06:33:46.077Z,1.50
2019-03-17T06:36:14.991Z,1.87
2019-03-17T06:38:43.907Z,1.80
2019-03-17T06:41:12.760Z,2.70
2019-03-17T06:43:41.661Z,1.47
2019-03-17T06:46:14.773Z,1.77
2019-03-17T06:48:43.628Z,1.50
2019-03-17T06:51:12.508Z,1.67
2019-03-17T06:53:41.438Z,1.53
2019-03-17T06:56:10.439Z,1.80
2019-03-17T06:58:39.362Z,1.23
2019-03-17T07:01:08.250Z,1.53
2019-03-17T07:03:37.139Z,1.57
2019-03-17T07:06:06.890Z,1.67
2019-03-17T07:08:36.545Z,1.60
2019-03-17T07:11:06.062Z,1.63
2019-03-17T07:13:34.906Z,1.67
2019-03-17T07:16:03.884Z,1.50
2019-03-17T07:18:32.801Z,1.83
2019-03-17T07:21:02.411Z,1.70
2019-03-17T07:23:34.097Z,1.73
2019-03-17T07:26:01.945Z,2.00
2019-03-17T07:28:30.824Z,1.63
2019-03-17T07:30:59.667Z,2.10
2019-03-17T07:33:28.578Z,2.17
2019-03-17T07:35:57.547Z,1.70
2019-03-17T07:38:26.478Z,1.73
2019-03-17T07:40:55.364Z,1.83
2019-03-17T07:43:24.929Z,1.90
2019-03-17T07:45:53.870Z,1.27
2019-03-17T07:48:22.756Z,1.70
2019-03-17T07:50:51.710Z,1.83
2019-03-17T07:53:20.635Z,1.77
2019-03-17T07:55:49.492Z,1.60
2019-03-17T07:58:18.363Z,1.33
2019-03-17T08:00:47.323Z,1.60
2019-03-17T08:03:16.352Z,1.53
2019-03-17T08:05:45.283Z,1.33
2019-03-17T08:08:16.513Z,1.90
2019-03-17T08:10:45.553Z,1.87
2019-03-17T08:13:14.456Z,1.70
2019-03-17T08:15:43.399Z,1.90
2019-03-17T08:18:12.534Z,1.40
2019-03-17T08:20:41.423Z,1.50
2019-03-17T08:23:10.385Z,1.90
2019-03-17T08:25:39.462Z,1.80
2019-03-17T08:28:08.467Z,1.60
2019-03-17T08:30:37.483Z,1.63
2019-03-17T08:33:06.395Z,2.23
2019-03-17T08:35:35.357Z,2.03
2019-03-17T08:38:04.367Z,2.17
2019-03-17T08:40:33.183Z,2.50
2019-03-17T08:43:02.138Z,4.50
2019-03-17T08:45:31.137Z,2.10
2019-03-17T08:48:00.170Z,3.10
2019-03-17T08:50:32.143Z,3.10
2019-03-17T08:53:01.104Z,2.60
2019-03-17T08:55:30.032Z,1.83
2019-03-17T08:57:59.020Z,1.90
2019-03-17T09:00:27.880Z,1.70
2019-03-17T09:02:56.814Z,1.33
2019-03-17T09:05:25.663Z,1.60
2019-03-17T09:07:54.521Z,2.20
2019-03-17T09:10:23.322Z,1.60
2019-03-17T09:12:52.431Z,1.50
2019-03-17T09:15:21.430Z,1.80
2019-03-17T09:17:50.398Z,1.40
2019-03-17T09:20:19.362Z,1.40
2019-03-17T09:22:49.389Z,1.97
2019-03-17T09:25:18.368Z,1.57
2019-03-17T09:27:50.581Z,1.10
2019-03-17T09:30:19.506Z,1.50
2019-03-17T09:32:48.525Z,1.20
2019-03-17T09:35:17.613Z,1.47
2019-03-17T09:37:46.544Z,1.60
2019-03-17T09:40:15.411Z,1.50
2019-03-17T09:42:45.694Z,1.60
2019-03-17T09:45:14.713Z,1.40
2019-03-17T09:47:46.894Z,1.83
2019-03-17T09:50:18.317Z,1.30
2019-03-17T09:52:47.211Z,1.80
2019-03-17T09:55:16.687Z,1.40
2019-03-17T09:57:45.678Z,1.33
2019-03-17T10:00:15.182Z,1.70
2019-03-17T10:02:44.463Z,2.03
2019-03-17T10:05:13.590Z,1.30
2019-03-17T10:07:42.715Z,1.67
2019-03-17T10:10:12.747Z,1.47
2019-03-17T10:12:41.786Z,1.37
2019-03-17T10:15:12.245Z,1.60
2019-03-17T10:17:41.438Z,2.30
2019-03-17T10:20:16.316Z,1.40
2019-03-17T10:22:45.495Z,1.30
2019-03-17T10:25:14.445Z,1.70
2019-03-17T10:27:43.522Z,1.50
2019-03-17T10:30:13.329Z,1.33
2019-03-17T10:32:42.333Z,1.60
2019-03-17T10:35:11.374Z,1.67
2019-03-17T10:37:40.325Z,1.17
2019-03-17T10:40:12.079Z,2.67
2019-03-17T10:42:41.151Z,1.57
2019-03-17T10:45:11.484Z,1.00
2019-03-17T10:47:40.622Z,1.43
2019-03-17T10:50:12.214Z,1.73
2019-03-17T10:52:41.472Z,2.17
2019-03-17T10:55:10.915Z,1.40
2019-03-17T10:57:39.990Z,1.80
2019-03-17T11:00:11.768Z,1.80
2019-03-17T11:02:40.735Z,1.40
2019-03-17T11:05:10.175Z,1.20
2019-03-17T11:07:39.204Z,1.97
2019-03-17T11:10:08.433Z,1.57
2019-03-17T11:12:37.447Z,1.67
2019-03-17T11:15:07.643Z,1.23
2019-03-17T11:17:36.669Z,1.43
2019-03-17T11:20:09.179Z,1.60
2019-03-17T11:22:38.261Z,1.73
2019-03-17T11:25:07.660Z,1.20
2019-03-17T11:27:36.665Z,2.07
2019-03-17T11:30:06.336Z,2.00
2019-03-17T11:32:35.330Z,1.50
2019-03-17T11:35:04.328Z,1.20
2019-03-17T11:37:33.185Z,1.37
2019-03-17T11:40:03.173Z,1.60
2019-03-17T11:42:32.105Z,1.50
2019-03-17T11:45:01.037Z,1.07
2019-03-17T11:47:30.010Z,1.30
2019-03-17T11:49:58.956Z,1.83
2019-03-17T11:52:28.190Z,1.70
2019-03-17T11:55:00.363Z,1.57
2019-03-17T11:57:29.383Z,1.70
2019-03-17T11:59:58.276Z,1.30
2019-03-17T12:02:28.157Z,1.30
2019-03-17T12:04:59.340Z,1.03
2019-03-17T12:07:28.323Z,1.50
2019-03-17T12:09:57.266Z,2.00
2019-03-17T12:12:26.256Z,2.03
2019-03-17T12:14:55.599Z,1.37
2019-03-17T12:17:26.272Z,1.20
2019-03-17T12:19:55.409Z,1.97
2019-03-17T12:22:24.413Z,1.30
2019-03-17T12:24:53.772Z,1.83
2019-03-17T12:27:22.785Z,1.50
2019-03-17T12:29:51.918Z,1.60
2019-03-17T12:32:21.392Z,1.60
2019-03-17T12:34:50.296Z,1.60
2019-03-17T12:37:19.271Z,1.30
2019-03-17T12:39:48.221Z,1.67
2019-03-17T12:42:17.144Z,1.47
2019-03-17T12:44:46.130Z,1.47
2019-03-17T12:47:15.055Z,1.80
2019-03-17T12:49:43.952Z,1.73
2019-03-17T12:52:12.870Z,2.00
2019-03-17T12:54:41.845Z,1.50
2019-03-17T12:57:10.842Z,2.30
2019-03-17T12:59:39.876Z,1.60
2019-03-17T13:02:08.880Z,1.30
2019-03-17T13:04:37.907Z,0.57
2019-03-17T13:07:06.967Z,0.50
2019-03-17T13:09:35.999Z,0.50
2019-03-17T13:12:04.958Z,0.50
2019-03-17T13:14:34.085Z,0.53
2019-03-17T13:17:03.153Z,0.37
2019-03-17T13:19:32.038Z,0.50
2019-03-17T13:22:01.262Z,0.50
2019-03-17T13:24:30.422Z,0.60
2019-03-17T13:26:59.670Z,0.73
2019-03-17T13:29:28.677Z,0.50
2019-03-17T13:31:57.810Z,0.77
2019-03-17T13:34:26.884Z,0.60
2019-03-17T13:36:55.875Z,1.80
2019-03-17T13:39:24.848Z,0.53
2019-03-17T13:41:53.989Z,0.40
2019-03-17T13:44:22.903Z,1.10
2019-03-17T13:46:51.917Z,0.60
2019-03-17T13:49:20.942Z,0.77
2019-03-17T13:51:49.872Z,1.10
2019-03-17T13:54:18.805Z,1.17
2019-03-17T13:56:48.885Z,1.10
2019-03-17T13:59:20.581Z,1.60
2019-03-17T14:01:51.981Z,1.60
2019-03-17T14:04:20.983Z,2.00
2019-03-17T14:06:50.157Z,1.50
2019-03-17T14:09:19.179Z,0.90
2019-03-17T14:11:48.194Z,1.50
2019-03-17T14:14:17.275Z,1.87
2019-03-17T14:16:46.226Z,2.17
2019-03-17T14:19:24.768Z,2.03
2019-03-17T14:21:53.712Z,1.47
2019-03-17T14:24:22.764Z,1.70
2019-03-17T14:26:51.794Z,1.90
2019-03-17T14:29:20.673Z,1.70
2019-03-17T14:31:49.699Z,1.87
2019-03-17T14:34:22.060Z,1.47
2019-03-17T14:36:50.892Z,1.50
2019-03-17T14:39:19.839Z,1.07
2019-03-17T14:41:48.682Z,1.33
2019-03-17T14:44:19.188Z,1.73
2019-03-17T14:46:48.426Z,1.70
2019-03-17T14:49:17.297Z,1.53
2019-03-17T14:51:46.209Z,1.60
2019-03-17T14:54:17.550Z,1.90
2019-03-17T14:56:49.691Z,1.57
2019-03-17T14:59:18.608Z,1.80
2019-03-17T15:01:47.557Z,1.40
2019-03-17T15:04:16.402Z,1.50
2019-03-17T15:06:45.291Z,1.77
2019-03-17T15:09:14.224Z,2.20
2019-03-17T15:11:43.119Z,1.83
2019-03-17T15:14:12.060Z,1.50
2019-03-17T15:16:43.826Z,1.90
2019-03-17T15:19:14.251Z,1.43
2019-03-17T15:21:43.377Z,1.50
2019-03-17T15:24:15.548Z,1.60
2019-03-17T15:26:44.502Z,1.33
2019-03-17T15:29:13.420Z,1.40
2019-03-17T15:31:42.469Z,1.93
2019-03-17T15:34:11.358Z,1.40
2019-03-17T15:36:40.326Z,2.03
2019-03-17T15:39:10.558Z,1.83
2019-03-17T15:41:39.512Z,1.80
2019-03-17T15:44:08.573Z,1.57
2019-03-17T15:46:42.235Z,1.50
2019-03-17T15:49:11.178Z,1.40
2019-03-17T15:51:40.293Z,1.60
2019-03-17T15:54:11.855Z,1.93
2019-03-17T15:56:41.018Z,1.57
2019-03-17T15:59:09.899Z,2.03
2019-03-17T16:01:38.861Z,2.03
2019-03-17T16:04:07.819Z,2.17
2019-03-17T16:06:36.760Z,1.40
2019-03-17T16:09:08.464Z,2.10
2019-03-17T16:11:40.050Z,2.80
2019-03-17T16:14:09.024Z,2.63
2019-03-17T16:16:37.921Z,1.60
2019-03-17T16:19:07.235Z,2.47
2019-03-17T16:21:36.422Z,2.00
2019-03-17T16:24:05.656Z,1.80
2019-03-17T16:26:36.494Z,1.50
2019-03-17T16:29:05.600Z,1.73
2019-03-17T16:31:34.616Z,2.00
2019-03-17T16:34:03.691Z,1.97
2019-03-17T16:36:32.843Z,1.53
2019-03-17T16:39:02.112Z,1.67
2019-03-17T16:41:42.642Z,2.13
2019-03-17T16:44:01.778Z,2.00
2019-03-17T16:46:30.720Z,1.83
2019-03-17T16:48:59.750Z,1.83
2019-03-17T16:51:28.830Z,1.70
2019-03-17T16:53:57.700Z,1.57
2019-03-17T16:56:26.717Z,1.73
2019-03-17T16:58:55.731Z,1.73
2019-03-17T17:01:24.706Z,1.87
2019-03-17T17:03:53.795Z,2.23
2019-03-17T17:06:24.121Z,1.67
2019-03-17T17:08:54.768Z,2.20
2019-03-17T17:11:24.572Z,2.40
2019-03-17T17:13:54.715Z,2.20
2019-03-17T17:16:29.743Z,3.50
2019-03-17T17:18:58.930Z,1.87
2019-03-17T17:21:27.821Z,1.30
2019-03-17T17:23:59.015Z,1.10
2019-03-17T17:26:37.266Z,1.13
2019-03-17T17:28:59.225Z,0.63
2019-03-17T17:31:28.166Z,1.00
2019-03-17T17:33:57.140Z,1.13
2019-03-17T17:36:26.210Z,0.90
2019-03-17T17:38:55.167Z,1.63
2019-03-17T17:41:24.236Z,1.07
2019-03-17T17:43:53.378Z,1.00
2019-03-17T17:46:22.399Z,0.87
2019-03-17T17:48:52.045Z,0.80
2019-03-17T17:51:20.916Z,1.20
2019-03-17T17:53:49.910Z,0.67
2019-03-17T17:56:18.859Z,1.30
2019-03-17T17:58:48.353Z,0.80
2019-03-17T18:01:19.446Z,0.80
2019-03-17T18:03:51.741Z,0.60
2019-03-17T18:06:24.166Z,1.47
2019-03-17T18:08:53.386Z,1.00
2019-03-17T18:11:22.892Z,1.27
2019-03-17T18:13:51.999Z,1.03
2019-03-17T18:16:21.035Z,1.03
2019-03-17T18:18:51.694Z,0.90
2019-03-17T18:21:21.032Z,1.00
2019-03-17T18:23:50.640Z,0.97
2019-03-17T18:26:19.879Z,1.10
2019-03-17T18:28:48.944Z,1.00
2019-03-17T18:31:18.046Z,1.00
2019-03-17T18:33:47.142Z,0.90
2019-03-17T18:36:16.744Z,1.20
2019-03-17T18:38:45.902Z,1.37
2019-03-17T18:41:14.947Z,1.33
2019-03-17T18:43:49.371Z,0.80
2019-03-17T18:46:18.580Z,1.70
2019-03-17T18:48:47.854Z,1.23
2019-03-17T18:51:16.946Z,0.90
2019-03-17T18:53:45.963Z,0.90
2019-03-17T18:56:15.503Z,1.00
2019-03-17T18:58:44.509Z,0.83
2019-03-17T19:01:13.468Z,1.40
2019-03-17T19:03:42.532Z,1.20
2019-03-17T19:06:14.638Z,2.17
2019-03-17T19:08:43.842Z,1.30
2019-03-17T19:11:13.092Z,1.27
2019-03-17T19:13:42.153Z,1.10
2019-03-17T19:16:11.016Z,1.17
2019-03-17T19:18:39.993Z,1.23
2019-03-17T19:21:09.367Z,1.53
2019-03-17T19:23:39.104Z,1.10
2019-03-17T19:26:08.251Z,1.03
2019-03-17T19:28:37.438Z,0.87
2019-03-17T19:31:06.570Z,1.57
2019-03-17T19:33:37.298Z,1.43
2019-03-17T19:36:06.597Z,1.00
2019-03-17T19:38:36.026Z,0.73
2019-03-17T19:41:07.047Z,0.63
2019-03-17T19:43:37.405Z,1.20
2019-03-17T19:46:06.397Z,1.20
2019-03-17T19:48:35.691Z,1.03
2019-03-17T19:51:04.766Z,1.50
2019-03-17T19:53:37.114Z,1.30
2019-03-17T19:56:06.665Z,1.80
2019-03-17T19:58:36.294Z,1.60
2019-03-17T20:01:11.817Z,1.80
2019-03-17T20:03:41.123Z,1.47
2019-03-17T20:06:11.227Z,2.70
2019-03-17T20:08:40.265Z,1.77
2019-03-17T20:11:09.442Z,1.27
2019-03-17T20:13:38.485Z,1.57
2019-03-17T20:16:09.903Z,1.17
2019-03-17T20:18:41.430Z,1.50
2019-03-17T20:21:10.837Z,1.50
2019-03-17T20:23:39.900Z,1.50
2019-03-17T20:26:08.931Z,1.53
2019-03-17T20:28:38.348Z,2.07
2019-03-17T20:31:07.740Z,1.73
2019-03-17T20:33:36.822Z,1.13
2019-03-17T20:36:07.596Z,1.20
2019-03-17T20:38:36.774Z,1.77
2019-03-17T20:41:06.274Z,1.70
2019-03-17T20:43:35.532Z,2.63
2019-03-17T20:46:04.639Z,1.67
2019-03-17T20:48:35.090Z,1.77
2019-03-17T20:51:04.007Z,1.10
2019-03-17T20:53:32.882Z,1.07
2019-03-17T20:56:01.900Z,1.37
2019-03-17T20:58:31.017Z,1.50
2019-03-17T21:01:00.750Z,1.40
2019-03-17T21:03:29.792Z,1.50
2019-03-17T21:05:58.860Z,1.17
2019-03-17T21:08:27.764Z,1.13
2019-03-17T21:10:56.800Z,0.90
2019-03-17T21:13:28.665Z,1.77
2019-03-17T21:15:57.605Z,1.37
2019-03-17T21:18:26.719Z,1.70
2019-03-17T21:20:55.610Z,1.83
2019-03-17T21:23:24.681Z,1.33
2019-03-17T21:25:53.772Z,1.50
2019-03-17T21:28:22.798Z,1.57
2019-03-17T21:30:51.729Z,1.20
2019-03-17T21:33:20.624Z,1.37
2019-03-17T21:35:49.551Z,1.53
2019-03-17T21:38:18.484Z,1.90
2019-03-17T21:41:01.641Z,2.07
2019-03-17T21:43:17.886Z,2.37
2019-03-17T21:45:46.836Z,1.80
2019-03-17T21:48:15.902Z,2.10
2019-03-17T21:50:44.959Z,1.30
2019-03-17T21:53:13.918Z,1.40
2019-03-17T21:55:42.773Z,1.63
2019-03-17T21:58:11.610Z,1.37
2019-03-17T22:00:42.990Z,1.73
2019-03-17T22:03:20.749Z,1.53
2019-03-17T22:05:49.683Z,1.63
2019-03-17T22:08:18.678Z,1.10
2019-03-17T22:10:48.577Z,1.43
2019-03-17T22:13:17.486Z,1.10
2019-03-17T22:15:46.322Z,1.83
2019-03-17T22:18:15.169Z,1.53
2019-03-17T22:20:44.011Z,1.17
2019-03-17T22:23:13.521Z,1.37
2019-03-17T22:25:42.376Z,1.33
2019-03-17T22:28:11.353Z,1.43
2019-03-17T22:30:40.233Z,1.30
2019-03-17T22:33:09.049Z,1.17
2019-03-17T22:35:37.915Z,1.23
2019-03-17T22:38:06.844Z,1.20
2019-03-17T22:40:38.762Z,1.67
2019-03-17T22:43:07.761Z,1.90
2019-03-17T22:45:36.719Z,1.43
2019-03-17T22:48:08.182Z,1.37
2019-03-17T22:50:41.875Z,1.20
2019-03-17T22:53:13.355Z,1.33
2019-03-17T22:55:42.243Z,1.53
2019-03-17T22:58:11.319Z,1.93
2019-03-17T23:00:44.218Z,2.20
2019-03-17T23:03:14.156Z,1.50
2019-03-17T23:05:43.092Z,1.73
2019-03-17T23:08:11.992Z,1.43
2019-03-17T23:10:40.781Z,1.30
2019-03-17T23:13:09.651Z,1.07
2019-03-17T23:15:38.478Z,1.40
2019-03-17T23:18:07.350Z,1.43
2019-03-17T23:20:36.272Z,1.50
2019-03-17T23:23:05.166Z,1.30
2019-03-17T23:25:34.089Z,0.80
2019-03-17T23:28:03.022Z,1.50
2019-03-17T23:30:31.988Z,1.60
2019-03-17T23:33:00.893Z,1.60
2019-03-17T23:35:29.915Z,1.10
2019-03-17T23:37:58.901Z,1.20
2019-03-17T23:40:27.791Z,0.83
2019-03-17T23:42:56.717Z,1.30
2019-03-17T23:45:25.563Z,1.53
2019-03-17T23:47:54.477Z,1.00
2019-03-17T23:50:23.435Z,1.15
2019-03-17T23:52:52.246Z,1.70
2019-03-17T23:55:21.123Z,1.37
2019-03-17T23:57:50.010Z,1.90
